Airfield :
LOGIN :

Register | Disclaimer

   EN    FR    IT 

 










Legend :    VFR   Marginal VFR   IFR   Intensive IFR   Very Intensive IFR
Visi :
Ceiling :
>= 8 km
>= 3000ft
5 to 8 km
1000 to 3000 ft
1500m to 5 km
500 to 1000 ft
800 to 1500m
200 to 500 ft
< 800m
< 200 ft
Symbols :   Thunderstorms  Fog  Heavy snow  Heavy precipitations  Wind > 20 kt
SIGMETs :     Misc.  Thunderstorms  Icing  Turbulence  Mountain Waves  Volcanic Ashes






- Airport Elevation : 7 ft
- IATA code : POW


LJPZ - Portoroz

CURRENT METAR :
  • 280700Z 12009KT 9999 FEW030 02/M01 Q1020

EXPIRED METARs :
  • 280630Z 12009KT 9999 FEW030 02/M01 Q1020
  • 280600Z 12008KT 9999 FEW030 01/M01 Q1020
  • 280530Z 12008KT 9999 FEW030 01/M01 Q1021
  • 280500Z 13009KT CAVOK 01/M01 Q1021

TAF TAF LJPZ
Valid from the 28 at 06:00 until the 28 at 15:00 UTC


280500Z 2806/2815 12006KT CAVOK



MET'MAP, your aeronautical weather chart ! - Copyright ORBIFLY December 2007 - Disclaimer

ORBIFLY MET'MAP TEAM :

Programming & Development : Alexandra Zaïnal
Original concept : Baudouin d'Aumeries
Technical & hardware support : Manuel Goepfert
Assistance : Marc-Olivier Méhu




SOURCES & CREDITS :

   NOAA